createdAt,value
2019-05-09T00:00:24.641Z,55.60
2019-05-09T00:02:54.243Z,55.70
2019-05-09T00:05:25.445Z,55.70
2019-05-09T00:07:55.077Z,55.80
2019-05-09T00:10:38.511Z,56.00
2019-05-09T00:12:56.092Z,56.10
2019-05-09T00:15:25.970Z,56.10
2019-05-09T00:17:55.806Z,56.80
2019-05-09T00:20:36.133Z,56.20
2019-05-09T00:23:05.725Z,56.30
2019-05-09T00:25:35.713Z,56.30
2019-05-09T00:28:06.163Z,57.10
2019-05-09T00:30:55.179Z,56.50
2019-05-09T00:33:26.472Z,56.50
2019-05-09T00:35:56.060Z,56.50
2019-05-09T00:38:27.565Z,56.60
2019-05-09T00:40:59.034Z,56.50
2019-05-09T00:43:28.558Z,56.70
2019-05-09T00:46:00.437Z,56.90
2019-05-09T00:48:38.207Z,56.80
2019-05-09T00:51:07.922Z,56.90
2019-05-09T00:53:37.561Z,56.90
2019-05-09T00:56:07.430Z,56.90
2019-05-09T00:58:37.023Z,56.80
2019-05-09T01:01:06.623Z,56.90
2019-05-09T01:03:36.233Z,57.10
2019-05-09T01:06:05.823Z,57.10
2019-05-09T01:08:35.514Z,57.00
2019-05-09T01:11:11.984Z,57.20
2019-05-09T01:13:36.684Z,57.20
2019-05-09T01:16:06.557Z,57.30
2019-05-09T01:18:36.721Z,57.30
2019-05-09T01:21:06.310Z,57.50
2019-05-09T01:23:35.991Z,57.50
2019-05-09T01:26:05.643Z,57.60
2019-05-09T01:28:35.526Z,57.60
2019-05-09T01:31:05.136Z,58.40
2019-05-09T01:33:34.578Z,57.80
2019-05-09T01:36:04.331Z,57.90
2019-05-09T01:38:34.140Z,57.90
2019-05-09T01:41:04.167Z,57.80
2019-05-09T01:43:33.978Z,57.80
2019-05-09T01:46:03.950Z,57.90
2019-05-09T01:48:34.216Z,57.90
2019-05-09T01:51:04.171Z,58.10
2019-05-09T01:53:35.689Z,58.20
2019-05-09T01:56:05.916Z,58.20
2019-05-09T01:58:36.911Z,58.30
2019-05-09T02:01:08.094Z,58.40
2019-05-09T02:03:37.774Z,58.40
2019-05-09T02:06:07.669Z,58.40
2019-05-09T02:08:37.337Z,58.40
2019-05-09T02:11:06.941Z,58.40
2019-05-09T02:13:36.622Z,58.40
2019-05-09T02:16:10.929Z,58.40
2019-05-09T02:18:44.071Z,58.50
2019-05-09T02:21:14.506Z,58.50
2019-05-09T02:23:44.004Z,58.00
2019-05-09T02:26:13.799Z,58.00
2019-05-09T02:28:43.486Z,58.30
2019-05-09T02:31:16.372Z,58.40
2019-05-09T02:33:45.744Z,58.50
2019-05-09T02:36:18.689Z,58.60
2019-05-09T02:38:48.719Z,58.70
2019-05-09T02:41:19.567Z,58.80
2019-05-09T02:43:50.087Z,58.80
2019-05-09T02:46:19.489Z,58.90
2019-05-09T02:48:49.688Z,58.90
2019-05-09T02:51:19.451Z,59.10
2019-05-09T02:53:49.049Z,58.80
2019-05-09T02:56:19.148Z,58.90
2019-05-09T02:58:59.272Z,59.10
2019-05-09T03:01:39.093Z,59.10
2019-05-09T03:04:09.087Z,59.00
2019-05-09T03:06:39.146Z,59.10
2019-05-09T03:09:09.295Z,59.30
2019-05-09T03:11:39.146Z,59.20
2019-05-09T03:14:09.384Z,59.30
2019-05-09T03:16:40.111Z,59.50
2019-05-09T03:19:09.834Z,59.50
2019-05-09T03:21:41.081Z,59.60
2019-05-09T03:24:10.682Z,59.50
2019-05-09T03:26:41.917Z,59.50
2019-05-09T03:29:19.216Z,59.50
2019-05-09T03:40:34.618Z,59.60
2019-05-09T03:43:08.162Z,59.50
2019-05-09T03:45:45.074Z,59.50
2019-05-09T03:48:25.226Z,59.70
2019-05-09T03:50:54.918Z,59.70
2019-05-09T03:53:24.523Z,59.70
2019-05-09T03:55:57.619Z,59.70
2019-05-09T03:58:28.133Z,59.70
2019-05-09T04:00:58.100Z,59.30
2019-05-09T04:03:27.843Z,59.20
2019-05-09T04:06:02.708Z,59.30
2019-05-09T04:08:28.896Z,59.60
2019-05-09T04:10:58.863Z,59.70
2019-05-09T04:13:30.041Z,59.80
2019-05-09T04:15:59.739Z,59.90
2019-05-09T04:18:29.614Z,59.80
2019-05-09T04:20:59.216Z,59.90
2019-05-09T04:23:28.959Z,60.00
2019-05-09T04:26:17.497Z,60.10
2019-05-09T04:28:47.208Z,60.10
2019-05-09T04:31:17.766Z,60.00
2019-05-09T04:33:47.621Z,60.10
2019-05-09T04:36:18.350Z,60.10
2019-05-09T04:38:47.984Z,60.10
2019-05-09T04:41:23.665Z,60.30
2019-05-09T04:43:48.906Z,60.20
2019-05-09T04:46:24.126Z,60.20
2019-05-09T04:48:54.167Z,60.20
2019-05-09T04:51:21.325Z,60.20
2019-05-09T04:53:50.932Z,60.40
2019-05-09T04:56:24.722Z,60.40
2019-05-09T04:58:54.326Z,60.50
2019-05-09T05:01:23.680Z,60.40
2019-05-09T05:03:57.186Z,60.50
2019-05-09T05:06:28.076Z,60.60
2019-05-09T05:08:58.641Z,60.50
2019-05-09T05:11:28.758Z,60.50
2019-05-09T05:13:58.731Z,60.50
2019-05-09T05:16:28.477Z,60.50
2019-05-09T05:18:58.477Z,60.40
2019-05-09T05:21:28.672Z,60.60
2019-05-09T05:23:58.337Z,60.50
2019-05-09T05:26:27.927Z,60.50
2019-05-09T05:28:58.185Z,60.50
2019-05-09T05:31:28.501Z,60.50
2019-05-09T05:34:08.157Z,60.50
2019-05-09T05:36:38.371Z,60.50
2019-05-09T05:39:09.559Z,60.40
2019-05-09T05:41:39.179Z,60.50
2019-05-09T05:44:08.834Z,60.60
2019-05-09T05:46:38.313Z,60.50
2019-05-09T05:49:08.197Z,60.60
2019-05-09T05:51:49.590Z,60.50
2019-05-09T05:54:23.079Z,60.30
2019-05-09T05:56:52.933Z,60.40
2019-05-09T05:59:22.546Z,60.30
2019-05-09T06:01:52.399Z,60.30
2019-05-09T06:04:22.006Z,60.10
2019-05-09T06:06:51.677Z,60.00
2019-05-09T06:09:21.304Z,60.10
2019-05-09T06:11:50.889Z,60.20
2019-05-09T06:14:20.478Z,60.10
2019-05-09T06:16:50.093Z,60.00
2019-05-09T06:19:19.760Z,60.10
2019-05-09T06:21:52.421Z,60.00
2019-05-09T06:24:20.685Z,60.00
2019-05-09T06:26:50.271Z,60.00
2019-05-09T06:29:19.876Z,60.00
2019-05-09T06:31:49.564Z,59.80
2019-05-09T06:34:19.626Z,59.70
2019-05-09T06:36:49.322Z,59.60
2019-05-09T06:39:18.911Z,59.50
2019-05-09T06:41:48.712Z,59.50
2019-05-09T06:44:20.818Z,59.50
2019-05-09T06:46:52.520Z,59.30
2019-05-09T06:49:28.321Z,59.20
2019-05-09T06:51:54.274Z,59.10
2019-05-09T06:54:24.023Z,59.00
2019-05-09T06:56:53.647Z,58.90
2019-05-09T06:59:23.646Z,58.90
2019-05-09T07:02:01.123Z,58.90
2019-05-09T07:04:32.511Z,58.90
2019-05-09T07:07:09.584Z,58.80
2019-05-09T07:09:52.402Z,59.50
2019-05-09T07:12:22.033Z,58.70
2019-05-09T07:14:51.626Z,58.70
2019-05-09T07:17:21.298Z,58.60
2019-05-09T07:19:50.893Z,58.50
2019-05-09T07:22:39.946Z,58.50
2019-05-09T07:25:11.805Z,58.50
2019-05-09T07:27:43.032Z,58.30
2019-05-09T07:30:25.532Z,58.10
2019-05-09T07:33:03.353Z,58.10
2019-05-09T07:35:32.918Z,57.80
2019-05-09T07:38:02.508Z,57.60
2019-05-09T07:40:32.124Z,57.60
2019-05-09T07:43:04.079Z,57.60
2019-05-09T07:45:33.686Z,57.60
2019-05-09T07:48:03.365Z,57.70
2019-05-09T07:50:33.040Z,57.70
2019-05-09T07:53:02.915Z,57.60
2019-05-09T07:55:32.511Z,57.60
2019-05-09T07:58:02.138Z,57.50
2019-05-09T08:00:38.437Z,57.40
2019-05-09T08:03:12.124Z,57.40
2019-05-09T08:05:39.212Z,57.40
2019-05-09T08:08:13.393Z,57.40
2019-05-09T08:10:43.011Z,57.40
2019-05-09T08:13:12.686Z,57.30
2019-05-09T08:15:42.357Z,57.10
2019-05-09T08:18:11.947Z,57.10
2019-05-09T08:20:42.309Z,57.10
2019-05-09T08:23:11.979Z,56.90
2019-05-09T08:25:41.601Z,56.70
2019-05-09T08:28:11.450Z,56.40
2019-05-09T08:30:41.077Z,56.10
2019-05-09T08:33:10.666Z,55.90
2019-05-09T08:35:40.605Z,55.80
2019-05-09T08:38:10.464Z,55.80
2019-05-09T08:40:40.057Z,55.60
2019-05-09T08:43:09.681Z,55.50
2019-05-09T08:45:39.349Z,55.50
2019-05-09T08:48:09.589Z,55.30
2019-05-09T08:50:43.640Z,55.20
2019-05-09T08:53:13.236Z,55.20
2019-05-09T08:55:42.876Z,55.00
2019-05-09T08:58:12.477Z,54.70
2019-05-09T09:00:42.090Z,53.70
2019-05-09T09:03:11.699Z,53.40
2019-05-09T09:05:43.393Z,53.20
2019-05-09T09:08:12.617Z,53.10
2019-05-09T09:10:42.217Z,52.80
2019-05-09T09:13:11.844Z,52.70
2019-05-09T09:16:12.169Z,52.50
2019-05-09T09:18:12.939Z,52.20
2019-05-09T09:20:43.328Z,52.20
2019-05-09T09:23:13.604Z,52.10
2019-05-09T09:25:43.480Z,52.20
2019-05-09T09:28:13.148Z,51.90
2019-05-09T09:30:42.739Z,51.80
2019-05-09T09:33:13.924Z,51.70
2019-05-09T09:35:43.723Z,51.40
2019-05-09T09:38:13.319Z,51.20
2019-05-09T09:40:42.945Z,50.90
2019-05-09T09:43:12.629Z,50.90
2019-05-09T09:45:42.217Z,50.70
2019-05-09T09:48:11.916Z,50.50
2019-05-09T09:50:41.510Z,50.30
2019-05-09T09:53:11.114Z,50.20
2019-05-09T09:55:40.721Z,50.10
2019-05-09T09:58:10.333Z,49.90
2019-05-09T10:00:58.250Z,50.00
2019-05-09T10:03:28.321Z,50.00
2019-05-09T10:06:00.592Z,49.60
2019-05-09T10:08:30.269Z,49.20
2019-05-09T10:10:59.961Z,49.40
2019-05-09T10:13:29.636Z,49.10
2019-05-09T10:16:25.212Z,48.70
2019-05-09T10:18:51.237Z,48.30
2019-05-09T10:21:22.473Z,48.10
2019-05-09T10:23:52.356Z,47.70
2019-05-09T10:26:22.250Z,47.30
2019-05-09T10:28:51.851Z,47.30
2019-05-09T10:31:21.544Z,47.10
2019-05-09T10:33:51.162Z,46.70
2019-05-09T10:36:20.769Z,46.50
2019-05-09T10:38:50.571Z,46.50
2019-05-09T10:41:20.167Z,46.20
2019-05-09T10:44:08.294Z,45.90
2019-05-09T10:47:01.933Z,45.90
2019-05-09T10:49:29.306Z,45.10
2019-05-09T10:51:58.972Z,45.20
2019-05-09T10:54:28.596Z,44.80
2019-05-09T10:56:58.213Z,45.00
2019-05-09T10:59:28.134Z,44.60
2019-05-09T11:01:58.193Z,44.40
2019-05-09T11:04:28.760Z,44.00
2019-05-09T11:06:58.736Z,43.80
2019-05-09T11:09:29.262Z,43.60
2019-05-09T11:12:01.220Z,43.90
2019-05-09T11:14:36.974Z,43.80
2019-05-09T11:17:10.913Z,44.20
2019-05-09T11:19:33.113Z,44.30
2019-05-09T11:22:02.721Z,44.70
2019-05-09T11:24:45.440Z,45.00
2019-05-09T11:27:03.666Z,45.30
2019-05-09T11:29:33.269Z,45.60
2019-05-09T11:32:02.874Z,45.80
2019-05-09T11:34:32.738Z,46.10
2019-05-09T11:37:02.595Z,46.60
2019-05-09T11:39:39.715Z,47.30
2019-05-09T11:42:03.623Z,47.20
2019-05-09T11:44:33.213Z,47.50
2019-05-09T11:47:03.077Z,47.70
2019-05-09T11:49:32.864Z,47.50
2019-05-09T11:52:02.472Z,47.80
2019-05-09T11:54:32.086Z,48.60
2019-05-09T11:57:01.711Z,48.20
2019-05-09T11:59:31.676Z,48.50
2019-05-09T12:02:01.352Z,48.50
2019-05-09T12:04:30.977Z,48.80
2019-05-09T12:07:00.591Z,48.60
2019-05-09T12:09:30.225Z,48.60
2019-05-09T12:11:59.892Z,48.20
2019-05-09T12:14:29.517Z,48.30
2019-05-09T12:16:59.144Z,48.20
2019-05-09T12:19:29.619Z,48.20
2019-05-09T12:21:59.444Z,48.40
2019-05-09T12:24:29.718Z,48.40
2019-05-09T12:27:02.815Z,48.60
2019-05-09T12:29:30.883Z,49.10
2019-05-09T12:32:00.509Z,49.20
2019-05-09T12:34:30.195Z,49.30
2019-05-09T12:37:00.051Z,49.60
2019-05-09T12:39:29.650Z,49.80
2019-05-09T12:41:59.279Z,49.80
2019-05-09T12:44:29.074Z,49.60
2019-05-09T12:46:58.776Z,49.70
2019-05-09T12:49:28.815Z,49.20
2019-05-09T12:51:59.113Z,49.30
2019-05-09T12:54:29.296Z,49.50
2019-05-09T12:56:59.335Z,49.40
2019-05-09T12:59:44.510Z,49.70
2019-05-09T13:02:01.349Z,49.70
2019-05-09T13:04:31.067Z,49.40
2019-05-09T13:07:00.663Z,49.80
2019-05-09T13:09:30.272Z,49.90
2019-05-09T13:11:59.935Z,49.70
2019-05-09T13:14:29.554Z,49.40
2019-05-09T13:17:08.079Z,49.60
2019-05-09T13:19:47.762Z,49.60
2019-05-09T13:22:18.475Z,49.80
2019-05-09T13:24:47.970Z,49.90
2019-05-09T13:27:18.911Z,49.90
2019-05-09T13:29:49.607Z,49.60
2019-05-09T13:32:19.385Z,49.00
2019-05-09T13:34:49.240Z,47.70
2019-05-09T13:37:19.090Z,47.50
2019-05-09T13:39:48.822Z,48.10
2019-05-09T13:42:19.469Z,48.30
2019-05-09T13:44:49.726Z,48.40
2019-05-09T13:47:19.354Z,48.40
2019-05-09T13:49:48.996Z,48.60
2019-05-09T13:52:18.626Z,48.70
2019-05-09T13:54:48.507Z,48.30
2019-05-09T13:57:18.923Z,47.80
2019-05-09T13:59:48.874Z,47.50
2019-05-09T14:02:18.904Z,47.60
2019-05-09T14:04:48.934Z,47.60
2019-05-09T14:07:19.411Z,47.50
2019-05-09T14:09:49.469Z,47.30
2019-05-09T14:12:19.126Z,47.70
2019-05-09T14:14:48.740Z,46.90
2019-05-09T14:17:19.252Z,46.50
2019-05-09T14:19:51.155Z,46.40
2019-05-09T14:22:20.437Z,45.70
2019-05-09T14:24:50.023Z,45.50
2019-05-09T14:27:19.659Z,45.30
2019-05-09T14:29:49.856Z,45.30
2019-05-09T14:32:19.580Z,45.00
2019-05-09T14:34:49.201Z,44.90
2019-05-09T14:37:18.895Z,45.50
2019-05-09T14:39:58.063Z,45.50
2019-05-09T14:42:19.848Z,45.80
2019-05-09T14:44:49.465Z,45.90
2019-05-09T14:47:19.075Z,45.70
2019-05-09T14:49:50.300Z,46.10
2019-05-09T14:52:20.186Z,46.30
2019-05-09T14:54:49.827Z,46.20
2019-05-09T14:57:19.419Z,46.20
2019-05-09T14:59:49.105Z,46.40
2019-05-09T15:02:18.733Z,46.70
2019-05-09T15:04:48.641Z,46.70
2019-05-09T15:07:19.399Z,47.00
2019-05-09T15:09:49.249Z,47.30
2019-05-09T15:12:18.843Z,47.00
2019-05-09T15:14:48.568Z,46.70
2019-05-09T15:17:18.664Z,46.70
2019-05-09T15:19:59.370Z,46.60
2019-05-09T15:22:19.723Z,46.40
2019-05-09T15:24:49.458Z,46.60
2019-05-09T15:27:19.139Z,46.80
2019-05-09T15:29:48.794Z,46.80
2019-05-09T15:32:18.525Z,46.70
2019-05-09T15:34:48.099Z,46.60
2019-05-09T15:37:18.591Z,46.20
2019-05-09T15:39:48.645Z,45.60
2019-05-09T15:42:18.451Z,45.50
2019-05-09T15:44:48.157Z,45.30
2019-05-09T15:47:19.427Z,45.50
2019-05-09T15:49:49.507Z,45.70
2019-05-09T15:52:19.187Z,45.60
2019-05-09T15:54:48.765Z,45.40
2019-05-09T15:57:18.772Z,45.20
2019-05-09T15:59:48.383Z,45.00
2019-05-09T16:02:18.971Z,45.00
2019-05-09T16:04:49.138Z,44.80
2019-05-09T16:07:18.750Z,44.80
2019-05-09T16:09:48.680Z,45.00
2019-05-09T16:12:18.660Z,44.90
2019-05-09T16:14:48.727Z,44.70
2019-05-09T16:17:19.242Z,44.70
2019-05-09T16:19:48.925Z,44.20
2019-05-09T16:22:19.080Z,43.80
2019-05-09T16:24:50.372Z,43.60
2019-05-09T16:27:20.024Z,43.80
2019-05-09T16:29:49.897Z,43.80
2019-05-09T16:32:19.541Z,43.60
2019-05-09T16:34:49.139Z,43.70
2019-05-09T16:37:18.804Z,43.40
2019-05-09T16:39:48.406Z,43.40
2019-05-09T16:42:17.998Z,43.70
2019-05-09T16:44:48.222Z,43.30
2019-05-09T16:47:21.767Z,43.00
2019-05-09T16:49:49.347Z,43.40
2019-05-09T16:52:19.048Z,43.20
2019-05-09T16:54:50.341Z,43.20
2019-05-09T16:57:20.013Z,42.80
2019-05-09T16:59:49.633Z,42.80
2019-05-09T17:02:24.834Z,42.70
2019-05-09T17:04:50.713Z,42.80
2019-05-09T17:07:23.686Z,42.80
2019-05-09T17:09:53.357Z,42.80
2019-05-09T17:12:23.032Z,42.90
2019-05-09T17:14:53.001Z,42.80
2019-05-09T17:17:22.631Z,42.60
2019-05-09T17:19:52.502Z,42.40
2019-05-09T17:22:23.773Z,42.30
2019-05-09T17:24:53.380Z,42.20
2019-05-09T17:27:22.993Z,42.60
2019-05-09T17:29:52.610Z,41.90
2019-05-09T17:32:22.233Z,42.10
2019-05-09T17:34:52.099Z,42.30
2019-05-09T17:37:21.845Z,42.30
2019-05-09T17:39:51.551Z,42.50
2019-05-09T17:42:21.660Z,42.60
2019-05-09T17:44:51.288Z,42.70
2019-05-09T17:47:20.977Z,42.80
2019-05-09T17:49:50.607Z,42.90
2019-05-09T17:52:20.244Z,43.20
2019-05-09T17:54:50.016Z,43.40
2019-05-09T17:57:19.637Z,43.50
2019-05-09T17:59:49.396Z,43.80
2019-05-09T18:02:20.489Z,43.90
2019-05-09T18:04:50.126Z,44.00
2019-05-09T18:07:19.726Z,44.20
2019-05-09T18:09:51.956Z,44.40
2019-05-09T18:12:21.577Z,44.70
2019-05-09T18:14:51.442Z,44.90
2019-05-09T18:17:21.068Z,45.20
2019-05-09T18:19:50.670Z,45.50
2019-05-09T18:22:20.464Z,45.60
2019-05-09T18:24:50.081Z,45.80
2019-05-09T18:27:20.094Z,46.30
2019-05-09T18:29:49.815Z,46.60
2019-05-09T18:32:19.307Z,47.00
2019-05-09T18:34:48.882Z,47.20
2019-05-09T18:37:18.496Z,47.40
2019-05-09T18:39:48.531Z,47.60
2019-05-09T18:42:18.187Z,48.00
2019-05-09T18:44:47.785Z,48.10
2019-05-09T18:47:19.902Z,48.30
2019-05-09T18:49:51.145Z,48.60
2019-05-09T18:52:22.723Z,48.90
2019-05-09T18:54:52.289Z,49.10
2019-05-09T18:57:21.916Z,49.60
2019-05-09T18:59:51.525Z,49.60
2019-05-09T19:02:21.277Z,49.90
2019-05-09T19:04:51.199Z,50.10
2019-05-09T19:07:22.755Z,50.30
2019-05-09T19:09:52.156Z,50.40
2019-05-09T19:12:21.759Z,50.70
2019-05-09T19:14:51.623Z,50.80
2019-05-09T19:17:22.884Z,51.20
2019-05-09T19:20:10.042Z,51.40
2019-05-09T19:22:39.653Z,51.20
2019-05-09T19:25:09.563Z,51.50
2019-05-09T19:27:39.207Z,51.80
2019-05-09T19:30:09.044Z,52.00
2019-05-09T19:32:38.660Z,52.00
2019-05-09T19:35:09.211Z,52.20
2019-05-09T19:37:38.845Z,52.30
2019-05-09T19:40:09.015Z,52.50
2019-05-09T19:42:38.762Z,52.60
2019-05-09T19:45:09.289Z,52.70
2019-05-09T19:47:38.913Z,52.60
2019-05-09T19:50:09.242Z,52.70
2019-05-09T19:52:39.156Z,52.80
2019-05-09T19:55:09.108Z,53.00
2019-05-09T19:57:38.713Z,53.10
2019-05-09T20:00:09.677Z,53.10
2019-05-09T20:02:40.941Z,53.30
2019-05-09T20:05:11.067Z,53.50
2019-05-09T20:07:40.746Z,53.40
2019-05-09T20:10:11.715Z,53.20
2019-05-09T20:12:59.380Z,53.20
2019-05-09T20:15:29.296Z,53.30
2019-05-09T20:17:58.959Z,53.20
2019-05-09T20:20:28.822Z,53.30
2019-05-09T20:22:58.424Z,53.40
2019-05-09T20:25:28.050Z,53.50
2019-05-09T20:27:58.010Z,53.70
2019-05-09T20:30:27.632Z,53.60
2019-05-09T20:32:57.534Z,53.70
2019-05-09T20:35:27.432Z,54.50
2019-05-09T20:37:57.205Z,54.10
2019-05-09T20:40:27.159Z,54.10
2019-05-09T20:42:56.955Z,54.10
2019-05-09T20:45:26.753Z,54.20
2019-05-09T20:47:56.573Z,54.30
2019-05-09T20:50:26.427Z,54.20
2019-05-09T20:53:09.180Z,54.30
2019-05-09T20:55:27.796Z,54.40
2019-05-09T20:57:57.701Z,54.60
2019-05-09T21:00:27.479Z,54.70
2019-05-09T21:02:57.562Z,54.90
2019-05-09T21:05:27.408Z,55.10
2019-05-09T21:07:57.252Z,55.30
2019-05-09T21:10:27.156Z,55.30
2019-05-09T21:12:56.928Z,55.50
2019-05-09T21:15:26.799Z,55.70
2019-05-09T21:17:56.575Z,55.80
2019-05-09T21:20:26.477Z,55.90
2019-05-09T21:22:56.286Z,56.20
2019-05-09T21:25:26.087Z,56.20
2019-05-09T21:27:56.122Z,56.30
2019-05-09T21:30:26.357Z,56.60
2019-05-09T21:32:56.335Z,56.90
2019-05-09T21:35:26.542Z,57.00
2019-05-09T21:37:56.117Z,57.10
2019-05-09T21:40:26.159Z,57.40
2019-05-09T21:42:55.760Z,57.40
2019-05-09T21:45:25.355Z,57.40
2019-05-09T21:47:55.081Z,57.60
2019-05-09T21:50:24.681Z,57.80
2019-05-09T21:52:54.301Z,57.90
2019-05-09T21:55:24.256Z,58.00
2019-05-09T21:57:53.862Z,58.00
2019-05-09T22:00:32.277Z,58.00
2019-05-09T22:03:02.047Z,58.80
2019-05-09T22:05:31.706Z,58.70
2019-05-09T22:08:01.681Z,58.70
2019-05-09T22:10:31.365Z,59.10
2019-05-09T22:13:01.079Z,59.10
2019-05-09T22:15:30.903Z,59.10
2019-05-09T22:18:00.576Z,59.00
2019-05-09T22:20:30.198Z,59.10
2019-05-09T22:22:59.888Z,59.00
2019-05-09T22:25:29.512Z,59.00
2019-05-09T22:27:59.373Z,59.60
2019-05-09T22:30:29.057Z,59.60
2019-05-09T22:32:58.669Z,59.80
2019-05-09T22:35:28.729Z,59.70
2019-05-09T22:37:58.339Z,60.30
2019-05-09T22:40:29.475Z,60.00
2019-05-09T22:42:59.202Z,60.10
2019-05-09T22:45:29.125Z,60.60
2019-05-09T22:47:58.723Z,60.40
2019-05-09T22:50:28.332Z,61.30
2019-05-09T22:52:58.022Z,61.10
2019-05-09T22:55:28.011Z,61.20
2019-05-09T22:57:57.903Z,61.30
2019-05-09T23:00:27.530Z,61.80
2019-05-09T23:02:57.129Z,62.00
2019-05-09T23:05:27.007Z,62.70
2019-05-09T23:07:56.697Z,63.10
2019-05-09T23:10:26.685Z,63.10
2019-05-09T23:12:56.295Z,63.70
2019-05-09T23:15:26.053Z,63.70
2019-05-09T23:17:55.684Z,63.40
2019-05-09T23:20:42.899Z,63.30
2019-05-09T23:23:32.243Z,63.30
2019-05-09T23:26:01.840Z,63.50
2019-05-09T23:28:31.442Z,63.70
2019-05-09T23:31:02.779Z,63.50
2019-05-09T23:33:34.270Z,64.20
2019-05-09T23:36:04.219Z,63.60
2019-05-09T23:38:33.814Z,63.80
2019-05-09T23:41:03.414Z,64.20
2019-05-09T23:43:33.088Z,63.90
2019-05-09T23:46:02.696Z,63.80
2019-05-09T23:48:32.695Z,63.70
2019-05-09T23:51:02.312Z,63.40
2019-05-09T23:53:36.449Z,63.60
2019-05-09T23:56:23.942Z,63.40
2019-05-09T23:59:10.922Z,63.50
